sensor_id;sensor_type;location;lat;lon;timestamp;P1;durP1;ratioP1;P2;durP2;ratioP2
58240;SDS011;45058;55.772;38.224;2022-12-07T00:01:18;15.47;;;5.97;;
58240;SDS011;45058;55.772;38.224;2022-12-07T00:03:44;12.90;;;5.83;;
58240;SDS011;45058;55.772;38.224;2022-12-07T00:06:14;13.47;;;5.93;;
58240;SDS011;45058;55.772;38.224;2022-12-07T00:08:41;12.10;;;4.93;;
58240;SDS011;45058;55.772;38.224;2022-12-07T00:11:14;13.97;;;5.63;;
58240;SDS011;45058;55.772;38.224;2022-12-07T00:13:44;12.20;;;5.50;;
58240;SDS011;45058;55.772;38.224;2022-12-07T00:16:12;14.23;;;6.30;;
58240;SDS011;45058;55.772;38.224;2022-12-07T00:18:39;15.97;;;6.27;;
58240;SDS011;45058;55.772;38.224;2022-12-07T00:21:09;16.40;;;6.33;;
58240;SDS011;45058;55.772;38.224;2022-12-07T00:23:37;11.13;;;5.47;;
58240;SDS011;45058;55.772;38.224;2022-12-07T00:26:07;17.33;;;6.10;;
58240;SDS011;45058;55.772;38.224;2022-12-07T00:28:41;13.80;;;5.60;;
58240;SDS011;45058;55.772;38.224;2022-12-07T00:31:08;12.33;;;5.27;;
58240;SDS011;45058;55.772;38.224;2022-12-07T00:33:36;13.87;;;5.50;;
58240;SDS011;45058;55.772;38.224;2022-12-07T00:36:03;10.60;;;4.87;;
58240;SDS011;45058;55.772;38.224;2022-12-07T00:38:32;13.23;;;5.60;;
58240;SDS011;45058;55.772;38.224;2022-12-07T00:41:00;10.87;;;5.37;;
58240;SDS011;45058;55.772;38.224;2022-12-07T00:43:28;14.60;;;6.27;;
58240;SDS011;45058;55.772;38.224;2022-12-07T00:45:54;13.10;;;5.83;;
58240;SDS011;45058;55.772;38.224;2022-12-07T00:48:21;12.17;;;5.43;;
58240;SDS011;45058;55.772;38.224;2022-12-07T00:50:47;14.23;;;5.50;;
58240;SDS011;45058;55.772;38.224;2022-12-07T00:53:13;13.30;;;5.57;;
58240;SDS011;45058;55.772;38.224;2022-12-07T00:55:40;14.17;;;5.70;;
58240;SDS011;45058;55.772;38.224;2022-12-07T00:58:06;12.83;;;5.57;;
58240;SDS011;45058;55.772;38.224;2022-12-07T01:00:33;12.70;;;5.20;;
58240;SDS011;45058;55.772;38.224;2022-12-07T01:03:01;11.97;;;5.33;;
58240;SDS011;45058;55.772;38.224;2022-12-07T01:05:27;13.90;;;5.13;;
58240;SDS011;45058;55.772;38.224;2022-12-07T01:07:53;14.83;;;5.37;;
58240;SDS011;45058;55.772;38.224;2022-12-07T01:10:19;13.57;;;5.60;;
58240;SDS011;45058;55.772;38.224;2022-12-07T01:12:45;12.97;;;5.47;;
58240;SDS011;45058;55.772;38.224;2022-12-07T01:15:11;12.77;;;5.13;;
58240;SDS011;45058;55.772;38.224;2022-12-07T01:17:37;12.87;;;5.10;;
58240;SDS011;45058;55.772;38.224;2022-12-07T01:20:03;14.53;;;5.50;;
58240;SDS011;45058;55.772;38.224;2022-12-07T01:22:30;12.70;;;5.60;;
58240;SDS011;45058;55.772;38.224;2022-12-07T01:24:56;15.07;;;5.20;;
58240;SDS011;45058;55.772;38.224;2022-12-07T01:27:22;13.07;;;5.57;;
58240;SDS011;45058;55.772;38.224;2022-12-07T01:29:48;15.67;;;5.43;;
58240;SDS011;45058;55.772;38.224;2022-12-07T01:32:14;17.20;;;6.20;;
58240;SDS011;45058;55.772;38.224;2022-12-07T01:34:39;11.70;;;5.37;;
58240;SDS011;45058;55.772;38.224;2022-12-07T01:37:05;12.43;;;5.60;;
58240;SDS011;45058;55.772;38.224;2022-12-07T01:39:31;15.13;;;6.60;;
58240;SDS011;45058;55.772;38.224;2022-12-07T01:41:57;14.20;;;5.73;;
58240;SDS011;45058;55.772;38.224;2022-12-07T01:49:22;13.80;;;5.37;;
58240;SDS011;45058;55.772;38.224;2022-12-07T01:52:15;12.48;;;4.10;;
58240;SDS011;45058;55.772;38.224;2022-12-07T01:54:44;12.57;;;5.57;;
58240;SDS011;45058;55.772;38.224;2022-12-07T01:57:11;10.47;;;5.13;;
58240;SDS011;45058;55.772;38.224;2022-12-07T01:59:38;12.80;;;5.40;;
58240;SDS011;45058;55.772;38.224;2022-12-07T02:02:05;13.23;;;5.47;;
58240;SDS011;45058;55.772;38.224;2022-12-07T02:04:36;15.53;;;5.80;;
58240;SDS011;45058;55.772;38.224;2022-12-07T02:07:02;16.20;;;5.73;;
58240;SDS011;45058;55.772;38.224;2022-12-07T02:09:29;14.17;;;6.33;;
58240;SDS011;45058;55.772;38.224;2022-12-07T02:11:55;14.97;;;6.30;;
58240;SDS011;45058;55.772;38.224;2022-12-07T02:14:21;14.57;;;5.63;;
58240;SDS011;45058;55.772;38.224;2022-12-07T02:17:08;15.97;;;6.20;;
58240;SDS011;45058;55.772;38.224;2022-12-07T02:22:40;12.10;;;5.23;;
58240;SDS011;45058;55.772;38.224;2022-12-07T02:28:03;13.43;;;6.27;;
58240;SDS011;45058;55.772;38.224;2022-12-07T02:30:40;15.20;;;5.73;;
58240;SDS011;45058;55.772;38.224;2022-12-07T02:33:14;11.63;;;5.63;;
58240;SDS011;45058;55.772;38.224;2022-12-07T02:39:08;12.27;;;5.77;;
58240;SDS011;45058;55.772;38.224;2022-12-07T02:41:35;13.70;;;6.27;;
58240;SDS011;45058;55.772;38.224;2022-12-07T02:44:07;9.05;;;4.95;;
58240;SDS011;45058;55.772;38.224;2022-12-07T02:46:41;20.60;;;6.33;;
58240;SDS011;45058;55.772;38.224;2022-12-07T02:49:09;14.70;;;6.90;;
58240;SDS011;45058;55.772;38.224;2022-12-07T02:51:38;18.53;;;6.57;;
58240;SDS011;45058;55.772;38.224;2022-12-07T02:54:39;16.37;;;6.37;;
58240;SDS011;45058;55.772;38.224;2022-12-07T02:57:02;16.33;;;6.73;;
58240;SDS011;45058;55.772;38.224;2022-12-07T03:02:21;17.07;;;6.77;;
58240;SDS011;45058;55.772;38.224;2022-12-07T03:10:46;13.77;;;6.70;;
58240;SDS011;45058;55.772;38.224;2022-12-07T03:16:18;16.70;;;7.13;;
58240;SDS011;45058;55.772;38.224;2022-12-07T03:21:21;17.83;;;7.60;;
58240;SDS011;45058;55.772;38.224;2022-12-07T03:23:51;17.07;;;7.10;;
58240;SDS011;45058;55.772;38.224;2022-12-07T03:26:21;15.43;;;6.73;;
58240;SDS011;45058;55.772;38.224;2022-12-07T03:28:52;14.87;;;7.60;;
58240;SDS011;45058;55.772;38.224;2022-12-07T03:31:40;20.57;;;7.97;;
58240;SDS011;45058;55.772;38.224;2022-12-07T03:34:16;23.13;;;8.17;;
58240;SDS011;45058;55.772;38.224;2022-12-07T03:36:50;19.07;;;7.83;;
58240;SDS011;45058;55.772;38.224;2022-12-07T03:39:24;23.47;;;7.17;;
58240;SDS011;45058;55.772;38.224;2022-12-07T03:41:58;15.17;;;7.07;;
58240;SDS011;45058;55.772;38.224;2022-12-07T03:44:25;16.63;;;7.60;;
58240;SDS011;45058;55.772;38.224;2022-12-07T03:50:06;21.77;;;8.20;;
58240;SDS011;45058;55.772;38.224;2022-12-07T03:52:41;17.43;;;7.83;;
58240;SDS011;45058;55.772;38.224;2022-12-07T03:57:58;21.53;;;8.67;;
58240;SDS011;45058;55.772;38.224;2022-12-07T04:00:27;18.00;;;8.13;;
58240;SDS011;45058;55.772;38.224;2022-12-07T04:02:53;17.23;;;8.17;;
58240;SDS011;45058;55.772;38.224;2022-12-07T04:05:20;20.77;;;8.30;;
58240;SDS011;45058;55.772;38.224;2022-12-07T04:07:46;19.37;;;7.63;;
58240;SDS011;45058;55.772;38.224;2022-12-07T04:10:12;16.67;;;7.33;;
58240;SDS011;45058;55.772;38.224;2022-12-07T04:12:39;17.07;;;7.43;;
58240;SDS011;45058;55.772;38.224;2022-12-07T04:15:07;19.20;;;7.57;;
58240;SDS011;45058;55.772;38.224;2022-12-07T04:17:33;17.07;;;7.73;;
58240;SDS011;45058;55.772;38.224;2022-12-07T04:19:59;20.30;;;7.33;;
58240;SDS011;45058;55.772;38.224;2022-12-07T04:22:25;20.63;;;8.97;;
58240;SDS011;45058;55.772;38.224;2022-12-07T04:24:51;17.73;;;8.43;;
58240;SDS011;45058;55.772;38.224;2022-12-07T04:27:17;21.53;;;9.13;;
58240;SDS011;45058;55.772;38.224;2022-12-07T04:29:43;23.40;;;10.23;;
58240;SDS011;45058;55.772;38.224;2022-12-07T04:32:09;28.43;;;12.17;;
58240;SDS011;45058;55.772;38.224;2022-12-07T04:34:35;29.53;;;11.70;;
58240;SDS011;45058;55.772;38.224;2022-12-07T04:37:01;31.37;;;11.83;;
58240;SDS011;45058;55.772;38.224;2022-12-07T04:39:28;41.70;;;13.83;;
58240;SDS011;45058;55.772;38.224;2022-12-07T04:41:55;41.70;;;14.30;;
58240;SDS011;45058;55.772;38.224;2022-12-07T04:44:22;36.47;;;13.53;;
58240;SDS011;45058;55.772;38.224;2022-12-07T04:46:48;45.47;;;14.90;;
58240;SDS011;45058;55.772;38.224;2022-12-07T04:49:15;37.50;;;12.93;;
58240;SDS011;45058;55.772;38.224;2022-12-07T04:51:42;32.17;;;11.80;;
58240;SDS011;45058;55.772;38.224;2022-12-07T04:54:08;31.63;;;11.40;;
58240;SDS011;45058;55.772;38.224;2022-12-07T04:56:34;23.07;;;9.70;;
58240;SDS011;45058;55.772;38.224;2022-12-07T04:59:01;22.93;;;10.27;;
58240;SDS011;45058;55.772;38.224;2022-12-07T05:01:27;21.53;;;8.97;;
58240;SDS011;45058;55.772;38.224;2022-12-07T05:03:53;16.57;;;8.03;;
58240;SDS011;45058;55.772;38.224;2022-12-07T05:06:19;17.73;;;7.17;;
58240;SDS011;45058;55.772;38.224;2022-12-07T05:08:45;18.20;;;7.60;;
58240;SDS011;45058;55.772;38.224;2022-12-07T05:11:12;18.27;;;8.00;;
58240;SDS011;45058;55.772;38.224;2022-12-07T05:13:58;21.80;;;8.13;;
58240;SDS011;45058;55.772;38.224;2022-12-07T05:16:24;22.63;;;8.33;;
58240;SDS011;45058;55.772;38.224;2022-12-07T05:18:50;16.20;;;7.53;;
58240;SDS011;45058;55.772;38.224;2022-12-07T05:21:16;19.93;;;9.03;;
58240;SDS011;45058;55.772;38.224;2022-12-07T05:23:42;15.33;;;7.60;;
58240;SDS011;45058;55.772;38.224;2022-12-07T05:26:08;17.00;;;8.20;;
58240;SDS011;45058;55.772;38.224;2022-12-07T05:28:34;14.50;;;7.47;;
58240;SDS011;45058;55.772;38.224;2022-12-07T05:31:00;18.00;;;8.10;;
58240;SDS011;45058;55.772;38.224;2022-12-07T05:33:26;19.20;;;7.47;;
58240;SDS011;45058;55.772;38.224;2022-12-07T05:35:52;20.40;;;8.67;;
58240;SDS011;45058;55.772;38.224;2022-12-07T05:38:18;16.17;;;8.20;;
58240;SDS011;45058;55.772;38.224;2022-12-07T05:40:44;17.03;;;7.57;;
58240;SDS011;45058;55.772;38.224;2022-12-07T05:43:10;20.23;;;8.00;;
58240;SDS011;45058;55.772;38.224;2022-12-07T05:45:36;16.87;;;7.50;;
58240;SDS011;45058;55.772;38.224;2022-12-07T05:48:02;16.37;;;7.93;;
58240;SDS011;45058;55.772;38.224;2022-12-07T05:50:28;17.67;;;8.13;;
58240;SDS011;45058;55.772;38.224;2022-12-07T05:53:00;15.07;;;7.10;;
58240;SDS011;45058;55.772;38.224;2022-12-07T05:55:26;15.47;;;7.67;;
58240;SDS011;45058;55.772;38.224;2022-12-07T05:57:52;15.27;;;7.67;;
58240;SDS011;45058;55.772;38.224;2022-12-07T06:00:36;16.97;;;7.80;;
58240;SDS011;45058;55.772;38.224;2022-12-07T06:03:02;21.20;;;8.57;;
58240;SDS011;45058;55.772;38.224;2022-12-07T06:05:28;16.73;;;8.20;;
58240;SDS011;45058;55.772;38.224;2022-12-07T06:07:54;20.27;;;8.73;;
58240;SDS011;45058;55.772;38.224;2022-12-07T06:10:20;19.80;;;9.00;;
58240;SDS011;45058;55.772;38.224;2022-12-07T06:12:46;18.97;;;8.30;;
58240;SDS011;45058;55.772;38.224;2022-12-07T06:15:12;18.63;;;9.13;;
58240;SDS011;45058;55.772;38.224;2022-12-07T06:17:38;23.00;;;8.73;;
58240;SDS011;45058;55.772;38.224;2022-12-07T06:20:05;21.07;;;9.63;;
58240;SDS011;45058;55.772;38.224;2022-12-07T06:22:32;24.60;;;9.93;;
58240;SDS011;45058;55.772;38.224;2022-12-07T06:24:58;21.40;;;9.13;;
58240;SDS011;45058;55.772;38.224;2022-12-07T06:27:23;20.67;;;8.90;;
58240;SDS011;45058;55.772;38.224;2022-12-07T06:29:50;20.23;;;8.47;;
58240;SDS011;45058;55.772;38.224;2022-12-07T06:32:16;21.90;;;9.23;;
58240;SDS011;45058;55.772;38.224;2022-12-07T06:34:42;22.30;;;9.30;;
58240;SDS011;45058;55.772;38.224;2022-12-07T06:37:08;19.30;;;8.57;;
58240;SDS011;45058;55.772;38.224;2022-12-07T06:39:34;23.00;;;9.07;;
58240;SDS011;45058;55.772;38.224;2022-12-07T06:42:00;19.13;;;8.87;;
58240;SDS011;45058;55.772;38.224;2022-12-07T06:44:26;18.03;;;8.47;;
58240;SDS011;45058;55.772;38.224;2022-12-07T06:46:52;16.53;;;7.37;;
58240;SDS011;45058;55.772;38.224;2022-12-07T06:49:18;25.33;;;9.07;;
58240;SDS011;45058;55.772;38.224;2022-12-07T06:51:44;19.63;;;8.70;;
58240;SDS011;45058;55.772;38.224;2022-12-07T06:54:11;18.03;;;8.00;;
58240;SDS011;45058;55.772;38.224;2022-12-07T06:56:38;21.37;;;8.07;;
58240;SDS011;45058;55.772;38.224;2022-12-07T06:59:04;18.13;;;9.30;;
58240;SDS011;45058;55.772;38.224;2022-12-07T07:01:32;22.13;;;7.73;;
58240;SDS011;45058;55.772;38.224;2022-12-07T07:03:59;19.07;;;8.80;;
58240;SDS011;45058;55.772;38.224;2022-12-07T07:06:26;22.73;;;9.17;;
58240;SDS011;45058;55.772;38.224;2022-12-07T07:08:52;17.93;;;9.87;;
58240;SDS011;45058;55.772;38.224;2022-12-07T07:11:19;18.07;;;8.87;;
58240;SDS011;45058;55.772;38.224;2022-12-07T07:13:45;21.20;;;9.10;;
58240;SDS011;45058;55.772;38.224;2022-12-07T07:16:11;20.97;;;8.67;;
58240;SDS011;45058;55.772;38.224;2022-12-07T07:18:37;22.63;;;8.87;;
58240;SDS011;45058;55.772;38.224;2022-12-07T07:21:03;20.60;;;8.90;;
58240;SDS011;45058;55.772;38.224;2022-12-07T07:23:30;18.13;;;8.97;;
58240;SDS011;45058;55.772;38.224;2022-12-07T07:25:56;20.83;;;10.00;;
58240;SDS011;45058;55.772;38.224;2022-12-07T07:28:22;21.17;;;8.67;;
58240;SDS011;45058;55.772;38.224;2022-12-07T07:30:48;16.17;;;8.30;;
58240;SDS011;45058;55.772;38.224;2022-12-07T07:33:14;19.83;;;7.97;;
58240;SDS011;45058;55.772;38.224;2022-12-07T07:35:40;19.40;;;7.13;;
58240;SDS011;45058;55.772;38.224;2022-12-07T07:38:06;18.23;;;6.67;;
58240;SDS011;45058;55.772;38.224;2022-12-07T07:40:33;12.10;;;6.37;;
58240;SDS011;45058;55.772;38.224;2022-12-07T07:42:59;13.70;;;6.57;;
58240;SDS011;45058;55.772;38.224;2022-12-07T07:45:26;14.00;;;6.83;;
58240;SDS011;45058;55.772;38.224;2022-12-07T07:47:52;17.57;;;7.33;;
58240;SDS011;45058;55.772;38.224;2022-12-07T07:50:19;14.40;;;6.43;;
58240;SDS011;45058;55.772;38.224;2022-12-07T07:52:45;13.33;;;7.00;;
58240;SDS011;45058;55.772;38.224;2022-12-07T07:55:11;19.13;;;6.00;;
58240;SDS011;45058;55.772;38.224;2022-12-07T07:57:39;15.13;;;6.67;;
58240;SDS011;45058;55.772;38.224;2022-12-07T08:00:07;14.00;;;6.57;;
58240;SDS011;45058;55.772;38.224;2022-12-07T08:02:39;15.40;;;6.07;;
58240;SDS011;45058;55.772;38.224;2022-12-07T08:05:06;16.43;;;6.13;;
58240;SDS011;45058;55.772;38.224;2022-12-07T08:07:32;14.67;;;6.13;;
58240;SDS011;45058;55.772;38.224;2022-12-07T08:09:58;13.63;;;6.13;;
58240;SDS011;45058;55.772;38.224;2022-12-07T08:12:24;13.33;;;6.17;;
58240;SDS011;45058;55.772;38.224;2022-12-07T08:14:50;16.10;;;6.30;;
58240;SDS011;45058;55.772;38.224;2022-12-07T08:17:17;13.87;;;6.33;;
58240;SDS011;45058;55.772;38.224;2022-12-07T08:19:43;18.27;;;6.60;;
58240;SDS011;45058;55.772;38.224;2022-12-07T08:22:08;13.53;;;7.00;;
58240;SDS011;45058;55.772;38.224;2022-12-07T08:24:35;10.10;;;5.47;;
58240;SDS011;45058;55.772;38.224;2022-12-07T08:27:01;16.00;;;6.00;;
58240;SDS011;45058;55.772;38.224;2022-12-07T08:29:28;12.53;;;6.10;;
58240;SDS011;45058;55.772;38.224;2022-12-07T08:31:54;16.57;;;6.83;;
58240;SDS011;45058;55.772;38.224;2022-12-07T08:34:20;13.10;;;6.73;;
58240;SDS011;45058;55.772;38.224;2022-12-07T08:36:46;13.67;;;6.40;;
58240;SDS011;45058;55.772;38.224;2022-12-07T08:39:12;14.07;;;6.87;;
58240;SDS011;45058;55.772;38.224;2022-12-07T08:41:38;17.73;;;6.90;;
58240;SDS011;45058;55.772;38.224;2022-12-07T08:44:04;15.23;;;7.20;;
58240;SDS011;45058;55.772;38.224;2022-12-07T08:46:32;14.87;;;6.77;;
58240;SDS011;45058;55.772;38.224;2022-12-07T08:49:13;15.50;;;6.40;;
58240;SDS011;45058;55.772;38.224;2022-12-07T08:51:46;18.70;;;6.67;;
58240;SDS011;45058;55.772;38.224;2022-12-07T08:54:14;20.77;;;7.53;;
58240;SDS011;45058;55.772;38.224;2022-12-07T08:56:42;14.67;;;6.80;;
58240;SDS011;45058;55.772;38.224;2022-12-07T08:59:09;12.13;;;6.50;;
58240;SDS011;45058;55.772;38.224;2022-12-07T09:01:37;17.80;;;6.43;;
58240;SDS011;45058;55.772;38.224;2022-12-07T09:04:03;15.40;;;6.20;;
58240;SDS011;45058;55.772;38.224;2022-12-07T09:06:29;13.33;;;5.37;;
58240;SDS011;45058;55.772;38.224;2022-12-07T09:08:56;13.20;;;6.23;;
58240;SDS011;45058;55.772;38.224;2022-12-07T09:11:23;15.20;;;7.00;;
58240;SDS011;45058;55.772;38.224;2022-12-07T09:13:49;20.03;;;6.97;;
58240;SDS011;45058;55.772;38.224;2022-12-07T09:16:16;14.23;;;5.90;;
58240;SDS011;45058;55.772;38.224;2022-12-07T09:18:42;16.73;;;7.03;;
58240;SDS011;45058;55.772;38.224;2022-12-07T09:21:08;13.73;;;6.47;;
58240;SDS011;45058;55.772;38.224;2022-12-07T09:23:34;17.10;;;7.23;;
58240;SDS011;45058;55.772;38.224;2022-12-07T09:26:01;16.10;;;6.53;;
58240;SDS011;45058;55.772;38.224;2022-12-07T09:28:28;13.20;;;6.47;;
58240;SDS011;45058;55.772;38.224;2022-12-07T09:30:54;16.77;;;6.10;;
58240;SDS011;45058;55.772;38.224;2022-12-07T09:33:20;12.73;;;6.33;;
58240;SDS011;45058;55.772;38.224;2022-12-07T09:35:46;17.53;;;5.77;;
58240;SDS011;45058;55.772;38.224;2022-12-07T09:38:14;16.60;;;6.50;;
58240;SDS011;45058;55.772;38.224;2022-12-07T09:40:41;11.07;;;5.77;;
58240;SDS011;45058;55.772;38.224;2022-12-07T09:43:16;17.70;;;6.57;;
58240;SDS011;45058;55.772;38.224;2022-12-07T09:45:44;12.45;;;5.70;;
58240;SDS011;45058;55.772;38.224;2022-12-07T09:48:29;14.60;;;6.00;;
58240;SDS011;45058;55.772;38.224;2022-12-07T09:53:40;16.93;;;7.30;;
58240;SDS011;45058;55.772;38.224;2022-12-07T09:56:08;15.97;;;7.27;;
58240;SDS011;45058;55.772;38.224;2022-12-07T09:58:37;14.03;;;7.03;;
58240;SDS011;45058;55.772;38.224;2022-12-07T10:01:20;13.90;;;6.63;;
58240;SDS011;45058;55.772;38.224;2022-12-07T10:03:51;12.57;;;6.23;;
58240;SDS011;45058;55.772;38.224;2022-12-07T10:06:18;16.13;;;6.03;;
58240;SDS011;45058;55.772;38.224;2022-12-07T10:08:44;12.67;;;6.97;;
58240;SDS011;45058;55.772;38.224;2022-12-07T10:11:10;15.37;;;7.23;;
58240;SDS011;45058;55.772;38.224;2022-12-07T10:13:41;14.47;;;6.43;;
58240;SDS011;45058;55.772;38.224;2022-12-07T10:21:58;12.50;;;6.13;;
58240;SDS011;45058;55.772;38.224;2022-12-07T10:24:25;15.30;;;6.93;;
58240;SDS011;45058;55.772;38.224;2022-12-07T10:26:52;13.63;;;6.17;;
58240;SDS011;45058;55.772;38.224;2022-12-07T10:34:49;12.77;;;5.93;;
58240;SDS011;45058;55.772;38.224;2022-12-07T10:37:17;32.33;;;7.13;;
58240;SDS011;45058;55.772;38.224;2022-12-07T10:39:52;15.65;;;6.45;;
58240;SDS011;45058;55.772;38.224;2022-12-07T10:42:20;12.77;;;5.93;;
58240;SDS011;45058;55.772;38.224;2022-12-07T10:44:47;11.80;;;6.23;;
58240;SDS011;45058;55.772;38.224;2022-12-07T10:47:19;15.93;;;5.97;;
58240;SDS011;45058;55.772;38.224;2022-12-07T10:49:55;17.10;;;6.53;;
58240;SDS011;45058;55.772;38.224;2022-12-07T11:00:24;18.67;;;6.07;;
58240;SDS011;45058;55.772;38.224;2022-12-07T11:08:18;15.60;;;6.30;;
58240;SDS011;45058;55.772;38.224;2022-12-07T11:13:54;12.47;;;6.83;;
58240;SDS011;45058;55.772;38.224;2022-12-07T11:16:34;13.97;;;7.20;;
58240;SDS011;45058;55.772;38.224;2022-12-07T11:19:19;17.37;;;6.83;;
58240;SDS011;45058;55.772;38.224;2022-12-07T11:27:32;12.73;;;6.63;;
58240;SDS011;45058;55.772;38.224;2022-12-07T11:30:21;13.57;;;6.77;;
58240;SDS011;45058;55.772;38.224;2022-12-07T11:35:45;18.40;;;7.03;;
58240;SDS011;45058;55.772;38.224;2022-12-07T11:38:50;17.57;;;7.27;;
58240;SDS011;45058;55.772;38.224;2022-12-07T11:41:27;20.03;;;7.60;;
58240;SDS011;45058;55.772;38.224;2022-12-07T11:44:22;19.50;;;7.60;;
58240;SDS011;45058;55.772;38.224;2022-12-07T11:46:56;18.42;;;8.82;;
58240;SDS011;45058;55.772;38.224;2022-12-07T11:49:32;20.43;;;7.90;;
58240;SDS011;45058;55.772;38.224;2022-12-07T11:52:05;18.40;;;6.60;;
58240;SDS011;45058;55.772;38.224;2022-12-07T11:54:47;18.50;;;7.87;;
58240;SDS011;45058;55.772;38.224;2022-12-07T11:57:36;15.80;;;8.53;;
58240;SDS011;45058;55.772;38.224;2022-12-07T12:00:06;18.47;;;7.90;;
58240;SDS011;45058;55.772;38.224;2022-12-07T12:02:52;13.95;;;6.75;;
58240;SDS011;45058;55.772;38.224;2022-12-07T12:05:26;16.67;;;7.73;;
58240;SDS011;45058;55.772;38.224;2022-12-07T12:08:03;17.13;;;8.17;;
58240;SDS011;45058;55.772;38.224;2022-12-07T12:10:52;15.93;;;7.90;;
58240;SDS011;45058;55.772;38.224;2022-12-07T12:16:01;22.13;;;8.00;;
58240;SDS011;45058;55.772;38.224;2022-12-07T12:21:25;17.43;;;8.70;;
58240;SDS011;45058;55.772;38.224;2022-12-07T12:24:01;17.95;;;8.85;;
58240;SDS011;45058;55.772;38.224;2022-12-07T12:26:30;23.88;;;9.52;;
58240;SDS011;45058;55.772;38.224;2022-12-07T12:28:59;22.90;;;9.63;;
58240;SDS011;45058;55.772;38.224;2022-12-07T12:31:33;16.67;;;8.50;;
58240;SDS011;45058;55.772;38.224;2022-12-07T12:34:03;18.57;;;8.83;;
58240;SDS011;45058;55.772;38.224;2022-12-07T12:39:11;18.90;;;9.17;;
58240;SDS011;45058;55.772;38.224;2022-12-07T12:47:04;18.60;;;8.00;;
58240;SDS011;45058;55.772;38.224;2022-12-07T12:50:24;24.70;;;8.97;;
58240;SDS011;45058;55.772;38.224;2022-12-07T12:52:51;19.02;;;8.82;;
58240;SDS011;45058;55.772;38.224;2022-12-07T12:55:22;17.57;;;8.40;;
58240;SDS011;45058;55.772;38.224;2022-12-07T12:58:25;17.50;;;8.60;;
58240;SDS011;45058;55.772;38.224;2022-12-07T13:01:41;19.33;;;8.57;;
58240;SDS011;45058;55.772;38.224;2022-12-07T13:03:59;19.40;;;8.70;;
58240;SDS011;45058;55.772;38.224;2022-12-07T13:08:53;23.47;;;9.73;;
58240;SDS011;45058;55.772;38.224;2022-12-07T13:11:25;17.30;;;8.70;;
58240;SDS011;45058;55.772;38.224;2022-12-07T13:17:09;20.43;;;8.87;;
58240;SDS011;45058;55.772;38.224;2022-12-07T13:19:56;19.77;;;8.13;;
58240;SDS011;45058;55.772;38.224;2022-12-07T13:25:02;18.70;;;8.97;;
58240;SDS011;45058;55.772;38.224;2022-12-07T13:28:01;21.27;;;9.70;;
58240;SDS011;45058;55.772;38.224;2022-12-07T13:30:57;18.15;;;9.10;;
58240;SDS011;45058;55.772;38.224;2022-12-07T13:33:24;23.90;;;8.40;;
58240;SDS011;45058;55.772;38.224;2022-12-07T13:35:53;19.83;;;8.80;;
58240;SDS011;45058;55.772;38.224;2022-12-07T13:38:25;21.13;;;9.60;;
58240;SDS011;45058;55.772;38.224;2022-12-07T13:43:49;24.27;;;9.70;;
58240;SDS011;45058;55.772;38.224;2022-12-07T13:46:29;18.20;;;8.70;;
58240;SDS011;45058;55.772;38.224;2022-12-07T13:49:01;19.40;;;8.53;;
58240;SDS011;45058;55.772;38.224;2022-12-07T13:51:28;22.40;;;8.43;;
58240;SDS011;45058;55.772;38.224;2022-12-07T13:53:55;18.57;;;8.73;;
58240;SDS011;45058;55.772;38.224;2022-12-07T13:56:28;20.23;;;8.47;;
58240;SDS011;45058;55.772;38.224;2022-12-07T13:58:58;19.83;;;9.47;;
58240;SDS011;45058;55.772;38.224;2022-12-07T14:01:24;19.83;;;9.47;;
58240;SDS011;45058;55.772;38.224;2022-12-07T14:03:51;17.83;;;8.40;;
58240;SDS011;45058;55.772;38.224;2022-12-07T14:06:22;17.97;;;8.90;;
58240;SDS011;45058;55.772;38.224;2022-12-07T14:09:05;20.17;;;9.00;;
58240;SDS011;45058;55.772;38.224;2022-12-07T14:11:43;20.87;;;8.77;;
58240;SDS011;45058;55.772;38.224;2022-12-07T14:14:10;19.83;;;8.53;;
58240;SDS011;45058;55.772;38.224;2022-12-07T14:16:40;19.93;;;9.47;;
58240;SDS011;45058;55.772;38.224;2022-12-07T14:19:53;20.97;;;8.60;;
58240;SDS011;45058;55.772;38.224;2022-12-07T14:22:23;22.60;;;9.00;;
58240;SDS011;45058;55.772;38.224;2022-12-07T14:27:39;23.00;;;9.63;;
58240;SDS011;45058;55.772;38.224;2022-12-07T14:30:05;20.00;;;9.20;;
58240;SDS011;45058;55.772;38.224;2022-12-07T14:32:32;21.77;;;9.53;;
58240;SDS011;45058;55.772;38.224;2022-12-07T14:35:02;21.40;;;9.73;;
58240;SDS011;45058;55.772;38.224;2022-12-07T14:37:36;23.67;;;10.35;;
58240;SDS011;45058;55.772;38.224;2022-12-07T14:40:03;28.17;;;12.07;;
58240;SDS011;45058;55.772;38.224;2022-12-07T14:42:30;24.50;;;10.70;;
58240;SDS011;45058;55.772;38.224;2022-12-07T14:44:57;23.57;;;9.60;;
58240;SDS011;45058;55.772;38.224;2022-12-07T14:47:24;28.57;;;10.70;;
58240;SDS011;45058;55.772;38.224;2022-12-07T14:49:50;23.73;;;10.80;;
58240;SDS011;45058;55.772;38.224;2022-12-07T14:52:21;23.70;;;11.23;;
58240;SDS011;45058;55.772;38.224;2022-12-07T14:54:49;22.80;;;9.73;;
58240;SDS011;45058;55.772;38.224;2022-12-07T14:57:15;21.63;;;9.13;;
58240;SDS011;45058;55.772;38.224;2022-12-07T14:59:41;23.13;;;9.67;;
58240;SDS011;45058;55.772;38.224;2022-12-07T15:02:08;21.50;;;9.73;;
58240;SDS011;45058;55.772;38.224;2022-12-07T15:04:36;25.77;;;10.33;;
58240;SDS011;45058;55.772;38.224;2022-12-07T15:07:03;24.00;;;10.03;;
58240;SDS011;45058;55.772;38.224;2022-12-07T15:09:30;19.87;;;8.63;;
58240;SDS011;45058;55.772;38.224;2022-12-07T15:11:56;22.70;;;9.93;;
58240;SDS011;45058;55.772;38.224;2022-12-07T15:14:22;25.37;;;10.40;;
58240;SDS011;45058;55.772;38.224;2022-12-07T15:16:49;18.70;;;8.93;;
58240;SDS011;45058;55.772;38.224;2022-12-07T15:19:16;17.53;;;8.63;;
58240;SDS011;45058;55.772;38.224;2022-12-07T15:21:43;25.47;;;10.13;;
58240;SDS011;45058;55.772;38.224;2022-12-07T15:24:10;23.43;;;10.97;;
58240;SDS011;45058;55.772;38.224;2022-12-07T15:26:38;19.47;;;9.53;;
58240;SDS011;45058;55.772;38.224;2022-12-07T15:29:05;27.00;;;11.03;;
58240;SDS011;45058;55.772;38.224;2022-12-07T15:31:31;21.40;;;9.23;;
58240;SDS011;45058;55.772;38.224;2022-12-07T15:33:58;20.93;;;9.77;;
58240;SDS011;45058;55.772;38.224;2022-12-07T15:36:25;19.87;;;9.23;;
58240;SDS011;45058;55.772;38.224;2022-12-07T15:38:53;23.33;;;10.47;;
58240;SDS011;45058;55.772;38.224;2022-12-07T15:41:19;17.63;;;8.67;;
58240;SDS011;45058;55.772;38.224;2022-12-07T15:43:46;22.60;;;8.50;;
58240;SDS011;45058;55.772;38.224;2022-12-07T15:46:31;20.70;;;9.60;;
58240;SDS011;45058;55.772;38.224;2022-12-07T15:49:07;20.77;;;9.23;;
58240;SDS011;45058;55.772;38.224;2022-12-07T15:51:36;20.67;;;9.87;;
58240;SDS011;45058;55.772;38.224;2022-12-07T15:54:02;20.00;;;8.97;;
58240;SDS011;45058;55.772;38.224;2022-12-07T15:56:28;19.37;;;8.73;;
58240;SDS011;45058;55.772;38.224;2022-12-07T15:58:55;21.07;;;9.00;;
58240;SDS011;45058;55.772;38.224;2022-12-07T16:01:22;17.50;;;8.17;;
58240;SDS011;45058;55.772;38.224;2022-12-07T16:03:48;21.20;;;9.63;;
58240;SDS011;45058;55.772;38.224;2022-12-07T16:06:17;18.77;;;7.93;;
58240;SDS011;45058;55.772;38.224;2022-12-07T16:08:44;21.13;;;8.77;;
58240;SDS011;45058;55.772;38.224;2022-12-07T16:11:11;17.83;;;8.33;;
58240;SDS011;45058;55.772;38.224;2022-12-07T16:13:38;16.90;;;8.40;;
58240;SDS011;45058;55.772;38.224;2022-12-07T16:16:05;21.77;;;8.03;;